sensor_id;sensor_type;location;lat;lon;timestamp;pressure;altitude;pressure_sealevel;temperature;humidity
42385;BME280;28042;43.986;22.860;2023-02-22T00:00:14;101127.16;;;9.23;59.96
42385;BME280;28042;43.986;22.860;2023-02-22T00:02:43;101121.34;;;9.26;60.76
42385;BME280;28042;43.986;22.860;2023-02-22T00:05:09;101127.19;;;9.46;60.53
42385;BME280;28042;43.986;22.860;2023-02-22T00:07:34;101123.94;;;9.73;60.28
42385;BME280;28042;43.986;22.860;2023-02-22T00:09:59;101122.09;;;9.88;59.64
42385;BME280;28042;43.986;22.860;2023-02-22T00:12:25;101125.22;;;10.23;58.89
42385;BME280;28042;43.986;22.860;2023-02-22T00:14:53;101131.47;;;10.46;58.22
42385;BME280;28042;43.986;22.860;2023-02-22T00:17:18;101129.50;;;10.55;57.93
42385;BME280;28042;43.986;22.860;2023-02-22T00:19:44;101120.09;;;10.58;58.11
42385;BME280;28042;43.986;22.860;2023-02-22T00:22:09;101126.41;;;10.73;57.44
42385;BME280;28042;43.986;22.860;2023-02-22T00:24:35;101123.03;;;10.71;57.20
42385;BME280;28042;43.986;22.860;2023-02-22T00:27:00;101124.44;;;10.67;57.70
42385;BME280;28042;43.986;22.860;2023-02-22T00:29:27;101127.53;;;10.64;57.29
42385;BME280;28042;43.986;22.860;2023-02-22T00:31:53;101120.47;;;10.55;56.97
42385;BME280;28042;43.986;22.860;2023-02-22T00:34:18;101115.84;;;10.40;57.23
42385;BME280;28042;43.986;22.860;2023-02-22T00:36:47;101113.59;;;10.29;57.95
42385;BME280;28042;43.986;22.860;2023-02-22T00:39:13;101111.09;;;10.19;57.32
42385;BME280;28042;43.986;22.860;2023-02-22T00:41:38;101107.22;;;10.14;57.31
42385;BME280;28042;43.986;22.860;2023-02-22T00:44:04;101114.09;;;10.10;57.88
42385;BME280;28042;43.986;22.860;2023-02-22T00:46:29;101111.44;;;10.02;57.94
42385;BME280;28042;43.986;22.860;2023-02-22T00:48:54;101107.09;;;9.93;58.03
42385;BME280;28042;43.986;22.860;2023-02-22T00:51:19;101108.19;;;9.83;58.49
42385;BME280;28042;43.986;22.860;2023-02-22T00:53:45;101112.13;;;9.81;58.43
42385;BME280;28042;43.986;22.860;2023-02-22T00:56:10;101107.88;;;9.78;59.22
42385;BME280;28042;43.986;22.860;2023-02-22T00:58:35;101099.25;;;9.75;59.31
42385;BME280;28042;43.986;22.860;2023-02-22T01:01:01;101099.31;;;9.67;59.10
42385;BME280;28042;43.986;22.860;2023-02-22T01:03:26;101102.50;;;9.70;58.73
42385;BME280;28042;43.986;22.860;2023-02-22T01:05:51;101096.94;;;9.63;58.77
42385;BME280;28042;43.986;22.860;2023-02-22T01:08:17;101098.28;;;9.68;59.51
42385;BME280;28042;43.986;22.860;2023-02-22T01:10:42;101097.13;;;9.62;59.64
42385;BME280;28042;43.986;22.860;2023-02-22T01:13:08;101093.53;;;9.61;59.38
42385;BME280;28042;43.986;22.860;2023-02-22T01:15:36;101090.69;;;9.55;59.52
42385;BME280;28042;43.986;22.860;2023-02-22T01:18:02;101091.78;;;9.46;60.10
42385;BME280;28042;43.986;22.860;2023-02-22T01:20:29;101092.47;;;9.48;60.20
42385;BME280;28042;43.986;22.860;2023-02-22T01:22:55;101088.59;;;9.42;59.97
42385;BME280;28042;43.986;22.860;2023-02-22T01:25:22;101089.50;;;9.57;59.99
42385;BME280;28042;43.986;22.860;2023-02-22T01:27:48;101094.56;;;9.60;59.82
42385;BME280;28042;43.986;22.860;2023-02-22T01:30:14;101086.75;;;9.80;59.06
42385;BME280;28042;43.986;22.860;2023-02-22T01:32:41;101094.50;;;9.91;59.06
42385;BME280;28042;43.986;22.860;2023-02-22T01:35:11;101095.81;;;9.96;58.73
42385;BME280;28042;43.986;22.860;2023-02-22T01:37:38;101089.25;;;10.05;58.67
42385;BME280;28042;43.986;22.860;2023-02-22T01:40:04;101088.59;;;10.03;58.73
42385;BME280;28042;43.986;22.860;2023-02-22T01:42:31;101088.59;;;10.03;58.07
42385;BME280;28042;43.986;22.860;2023-02-22T01:47:41;101086.91;;;10.02;59.06
42385;BME280;28042;43.986;22.860;2023-02-22T01:50:07;101087.56;;;10.04;58.79
42385;BME280;28042;43.986;22.860;2023-02-22T01:52:34;101083.91;;;10.11;59.31
42385;BME280;28042;43.986;22.860;2023-02-22T01:55:01;101078.59;;;10.18;59.75
42385;BME280;28042;43.986;22.860;2023-02-22T01:57:28;101078.19;;;10.21;59.38
42385;BME280;28042;43.986;22.860;2023-02-22T01:59:59;101075.41;;;10.29;59.27
42385;BME280;28042;43.986;22.860;2023-02-22T02:02:26;101072.59;;;10.37;59.33
42385;BME280;28042;43.986;22.860;2023-02-22T02:04:52;101072.41;;;10.39;59.47
42385;BME280;28042;43.986;22.860;2023-02-22T02:07:18;101065.91;;;10.40;59.64
42385;BME280;28042;43.986;22.860;2023-02-22T02:12:14;101072.50;;;10.45;59.72
42385;BME280;28042;43.986;22.860;2023-02-22T02:14:40;101068.66;;;10.55;59.29
42385;BME280;28042;43.986;22.860;2023-02-22T02:17:07;101075.06;;;10.47;59.96
42385;BME280;28042;43.986;22.860;2023-02-22T02:19:45;101069.50;;;10.40;59.77
42385;BME280;28042;43.986;22.860;2023-02-22T02:27:21;101070.81;;;10.44;60.05
42385;BME280;28042;43.986;22.860;2023-02-22T02:39:50;101091.81;;;10.21;60.25
42385;BME280;28042;43.986;22.860;2023-02-22T02:42:19;101091.19;;;10.19;60.10
42385;BME280;28042;43.986;22.860;2023-02-22T02:45:06;101101.00;;;10.05;60.80
42385;BME280;28042;43.986;22.860;2023-02-22T02:47:35;101097.66;;;9.80;60.90
42385;BME280;28042;43.986;22.860;2023-02-22T02:52:30;101110.75;;;9.39;62.17
42385;BME280;28042;43.986;22.860;2023-02-22T02:54:58;101106.09;;;9.17;63.47
42385;BME280;28042;43.986;22.860;2023-02-22T02:57:23;101109.75;;;9.01;63.81
42385;BME280;28042;43.986;22.860;2023-02-22T02:59:49;101099.78;;;8.85;64.73
42385;BME280;28042;43.986;22.860;2023-02-22T03:13:01;101103.28;;;8.63;66.17
42385;BME280;28042;43.986;22.860;2023-02-22T03:23:37;101103.97;;;8.57;66.93
42385;BME280;28042;43.986;22.860;2023-02-22T03:26:12;101110.94;;;8.59;67.99
42385;BME280;28042;43.986;22.860;2023-02-22T03:28:39;101106.66;;;8.73;67.15
42385;BME280;28042;43.986;22.860;2023-02-22T03:31:14;101113.59;;;8.75;67.40
42385;BME280;28042;43.986;22.860;2023-02-22T03:33:41;101118.34;;;8.82;66.84
42385;BME280;28042;43.986;22.860;2023-02-22T03:36:18;101116.31;;;8.75;67.08
42385;BME280;28042;43.986;22.860;2023-02-22T03:38:45;101117.34;;;8.74;67.68
42385;BME280;28042;43.986;22.860;2023-02-22T03:41:12;101116.00;;;8.70;68.16
42385;BME280;28042;43.986;22.860;2023-02-22T03:43:43;101126.91;;;8.70;67.70
42385;BME280;28042;43.986;22.860;2023-02-22T03:46:11;101131.59;;;8.76;67.95
42385;BME280;28042;43.986;22.860;2023-02-22T03:51:02;101135.03;;;8.78;67.77
42385;BME280;28042;43.986;22.860;2023-02-22T03:53:28;101137.78;;;8.70;68.58
42385;BME280;28042;43.986;22.860;2023-02-22T03:55:55;101125.53;;;8.66;68.57
42385;BME280;28042;43.986;22.860;2023-02-22T03:58:22;101136.41;;;8.66;68.71
42385;BME280;28042;43.986;22.860;2023-02-22T04:00:49;101132.03;;;8.57;68.84
42385;BME280;28042;43.986;22.860;2023-02-22T04:03:17;101134.22;;;8.62;68.87
42385;BME280;28042;43.986;22.860;2023-02-22T04:05:43;101131.00;;;8.58;69.25
42385;BME280;28042;43.986;22.860;2023-02-22T04:08:08;101144.28;;;8.53;69.55
42385;BME280;28042;43.986;22.860;2023-02-22T04:10:33;101134.25;;;8.54;69.56
42385;BME280;28042;43.986;22.860;2023-02-22T04:13:01;101133.72;;;8.50;70.13
42385;BME280;28042;43.986;22.860;2023-02-22T04:15:27;101125.25;;;8.53;70.46
42385;BME280;28042;43.986;22.860;2023-02-22T04:17:52;101129.97;;;8.59;70.26
42385;BME280;28042;43.986;22.860;2023-02-22T04:20:18;101135.28;;;8.53;70.64
42385;BME280;28042;43.986;22.860;2023-02-22T04:22:44;101141.56;;;8.53;70.37
42385;BME280;28042;43.986;22.860;2023-02-22T04:25:09;101142.91;;;8.49;70.66
42385;BME280;28042;43.986;22.860;2023-02-22T04:27:34;101144.47;;;8.43;71.18
42385;BME280;28042;43.986;22.860;2023-02-22T04:30:00;101151.78;;;8.43;71.01
42385;BME280;28042;43.986;22.860;2023-02-22T04:32:25;101141.56;;;8.45;71.25
42385;BME280;28042;43.986;22.860;2023-02-22T04:34:50;101152.09;;;8.40;71.17
42385;BME280;28042;43.986;22.860;2023-02-22T04:37:15;101153.78;;;8.33;71.25
42385;BME280;28042;43.986;22.860;2023-02-22T04:39:41;101150.41;;;8.22;71.71
42385;BME280;28042;43.986;22.860;2023-02-22T04:42:06;101154.81;;;8.15;72.21
42385;BME280;28042;43.986;22.860;2023-02-22T04:44:32;101156.38;;;8.10;72.63
42385;BME280;28042;43.986;22.860;2023-02-22T04:46:57;101151.13;;;8.00;72.92
42385;BME280;28042;43.986;22.860;2023-02-22T04:49:22;101159.25;;;7.92;73.27
42385;BME280;28042;43.986;22.860;2023-02-22T04:51:48;101160.94;;;7.85;73.78
42385;BME280;28042;43.986;22.860;2023-02-22T04:54:13;101160.59;;;7.80;73.76
42385;BME280;28042;43.986;22.860;2023-02-22T04:56:41;101160.94;;;7.77;73.79
42385;BME280;28042;43.986;22.860;2023-02-22T04:59:06;101163.28;;;7.63;74.34
42385;BME280;28042;43.986;22.860;2023-02-22T05:01:32;101170.72;;;7.53;75.11
42385;BME280;28042;43.986;22.860;2023-02-22T05:03:58;101163.28;;;7.47;75.59
42385;BME280;28042;43.986;22.860;2023-02-22T05:06:23;101171.53;;;7.37;75.79
42385;BME280;28042;43.986;22.860;2023-02-22T05:08:49;101173.38;;;7.29;76.30
42385;BME280;28042;43.986;22.860;2023-02-22T05:11:14;101171.81;;;7.18;76.51
42385;BME280;28042;43.986;22.860;2023-02-22T05:13:39;101175.03;;;7.14;77.10
42385;BME280;28042;43.986;22.860;2023-02-22T05:16:06;101181.63;;;7.11;77.68
42385;BME280;28042;43.986;22.860;2023-02-22T05:18:31;101180.59;;;7.04;77.80
42385;BME280;28042;43.986;22.860;2023-02-22T05:20:56;101177.00;;;6.95;78.68
42385;BME280;28042;43.986;22.860;2023-02-22T05:23:22;101174.50;;;6.76;79.74
42385;BME280;28042;43.986;22.860;2023-02-22T05:25:47;101192.66;;;6.75;80.76
42385;BME280;28042;43.986;22.860;2023-02-22T05:28:13;101182.97;;;6.73;80.71
42385;BME280;28042;43.986;22.860;2023-02-22T05:30:39;101190.44;;;6.71;81.14
42385;BME280;28042;43.986;22.860;2023-02-22T05:33:04;101191.78;;;6.75;81.33
42385;BME280;28042;43.986;22.860;2023-02-22T05:35:30;101187.91;;;6.77;81.45
42385;BME280;28042;43.986;22.860;2023-02-22T05:37:56;101192.84;;;6.82;81.40
42385;BME280;28042;43.986;22.860;2023-02-22T05:40:23;101193.91;;;6.89;81.20
42385;BME280;28042;43.986;22.860;2023-02-22T05:42:49;101187.19;;;7.01;81.12
42385;BME280;28042;43.986;22.860;2023-02-22T05:45:16;101194.03;;;7.14;80.39
42385;BME280;28042;43.986;22.860;2023-02-22T05:47:41;101194.41;;;7.27;79.82
42385;BME280;28042;43.986;22.860;2023-02-22T05:50:07;101196.69;;;7.40;78.98
42385;BME280;28042;43.986;22.860;2023-02-22T05:52:33;101204.84;;;7.48;79.00
42385;BME280;28042;43.986;22.860;2023-02-22T05:54:58;101208.44;;;7.56;78.46
42385;BME280;28042;43.986;22.860;2023-02-22T05:57:23;101197.41;;;7.66;77.76
42385;BME280;28042;43.986;22.860;2023-02-22T05:59:49;101205.75;;;7.81;77.48
42385;BME280;28042;43.986;22.860;2023-02-22T06:02:14;101217.31;;;7.91;76.85
42385;BME280;28042;43.986;22.860;2023-02-22T06:04:43;101216.31;;;8.08;76.26
42385;BME280;28042;43.986;22.860;2023-02-22T06:07:09;101221.72;;;8.16;75.38
42385;BME280;28042;43.986;22.860;2023-02-22T06:09:34;101222.94;;;8.30;74.80
42385;BME280;28042;43.986;22.860;2023-02-22T06:11:59;101226.19;;;8.42;73.87
42385;BME280;28042;43.986;22.860;2023-02-22T06:14:24;101219.88;;;8.58;73.20
42385;BME280;28042;43.986;22.860;2023-02-22T06:16:53;101221.72;;;8.73;71.59
42385;BME280;28042;43.986;22.860;2023-02-22T06:19:19;101212.03;;;8.87;71.04
42385;BME280;28042;43.986;22.860;2023-02-22T06:21:48;101221.84;;;8.96;70.84
42385;BME280;28042;43.986;22.860;2023-02-22T06:24:13;101222.69;;;9.05;70.33
42385;BME280;28042;43.986;22.860;2023-02-22T06:26:39;101229.59;;;9.16;69.79
42385;BME280;28042;43.986;22.860;2023-02-22T06:29:04;101230.06;;;9.27;69.29
42385;BME280;28042;43.986;22.860;2023-02-22T06:31:29;101240.22;;;9.42;68.42
42385;BME280;28042;43.986;22.860;2023-02-22T06:33:55;101227.59;;;9.49;68.36
42385;BME280;28042;43.986;22.860;2023-02-22T06:36:21;101245.22;;;9.61;67.68
42385;BME280;28042;43.986;22.860;2023-02-22T06:38:46;101245.50;;;9.74;66.65
42385;BME280;28042;43.986;22.860;2023-02-22T06:41:11;101245.41;;;9.90;66.50
42385;BME280;28042;43.986;22.860;2023-02-22T06:43:37;101243.78;;;10.04;65.77
42385;BME280;28042;43.986;22.860;2023-02-22T06:46:02;101248.78;;;10.15;65.65
42385;BME280;28042;43.986;22.860;2023-02-22T06:48:27;101247.38;;;10.28;64.93
42385;BME280;28042;43.986;22.860;2023-02-22T06:50:53;101237.91;;;10.38;65.16
42385;BME280;28042;43.986;22.860;2023-02-22T06:53:18;101237.78;;;10.55;63.95
42385;BME280;28042;43.986;22.860;2023-02-22T06:55:43;101241.75;;;10.67;64.14
42385;BME280;28042;43.986;22.860;2023-02-22T06:58:08;101245.34;;;10.82;63.54
42385;BME280;28042;43.986;22.860;2023-02-22T07:00:34;101251.88;;;10.96;63.08
42385;BME280;28042;43.986;22.860;2023-02-22T07:03:00;101241.13;;;11.09;62.88
42385;BME280;28042;43.986;22.860;2023-02-22T07:05:27;101241.69;;;11.19;62.75
42385;BME280;28042;43.986;22.860;2023-02-22T07:07:53;101245.19;;;11.28;62.93
42385;BME280;28042;43.986;22.860;2023-02-22T07:10:23;101235.69;;;11.39;62.55
42385;BME280;28042;43.986;22.860;2023-02-22T07:12:49;101236.44;;;11.47;61.99
42385;BME280;28042;43.986;22.860;2023-02-22T07:15:17;101242.31;;;11.66;61.68
42385;BME280;28042;43.986;22.860;2023-02-22T07:17:42;101244.47;;;11.85;61.17
42385;BME280;28042;43.986;22.860;2023-02-22T07:20:08;101238.50;;;11.96;60.47
42385;BME280;28042;43.986;22.860;2023-02-22T07:22:35;101233.75;;;12.05;60.41
42385;BME280;28042;43.986;22.860;2023-02-22T07:25:01;101235.59;;;12.19;59.83
42385;BME280;28042;43.986;22.860;2023-02-22T07:27:26;101230.44;;;12.31;59.58
42385;BME280;28042;43.986;22.860;2023-02-22T07:29:51;101227.16;;;12.42;59.13
42385;BME280;28042;43.986;22.860;2023-02-22T07:32:17;101223.09;;;12.59;58.73
42385;BME280;28042;43.986;22.860;2023-02-22T07:34:42;101230.38;;;12.73;58.81
42385;BME280;28042;43.986;22.860;2023-02-22T07:37:07;101227.53;;;12.88;58.20
42385;BME280;28042;43.986;22.860;2023-02-22T07:39:33;101219.66;;;13.07;57.65
42385;BME280;28042;43.986;22.860;2023-02-22T07:41:58;101213.03;;;13.22;57.04
42385;BME280;28042;43.986;22.860;2023-02-22T07:44:24;101217.50;;;13.37;56.92
42385;BME280;28042;43.986;22.860;2023-02-22T07:46:49;101212.31;;;13.55;56.05
42385;BME280;28042;43.986;22.860;2023-02-22T07:49:15;101213.66;;;13.72;55.38
42385;BME280;28042;43.986;22.860;2023-02-22T07:51:40;101216.69;;;13.91;54.44
42385;BME280;28042;43.986;22.860;2023-02-22T07:54:06;101208.69;;;14.15;53.76
42385;BME280;28042;43.986;22.860;2023-02-22T07:56:31;101205.34;;;14.27;52.43
42385;BME280;28042;43.986;22.860;2023-02-22T07:58:56;101212.09;;;14.37;51.97
42385;BME280;28042;43.986;22.860;2023-02-22T08:01:22;101211.28;;;14.43;51.63
42385;BME280;28042;43.986;22.860;2023-02-22T08:03:48;101204.94;;;14.43;51.29
42385;BME280;28042;43.986;22.860;2023-02-22T08:06:14;101208.75;;;14.49;50.87
42385;BME280;28042;43.986;22.860;2023-02-22T08:08:39;101205.78;;;14.57;50.75
42385;BME280;28042;43.986;22.860;2023-02-22T08:11:05;101201.59;;;14.61;50.86
42385;BME280;28042;43.986;22.860;2023-02-22T08:13:30;101204.50;;;14.59;50.82
42385;BME280;28042;43.986;22.860;2023-02-22T08:15:55;101203.25;;;14.75;50.33
42385;BME280;28042;43.986;22.860;2023-02-22T08:18:21;101204.53;;;14.79;50.06
42385;BME280;28042;43.986;22.860;2023-02-22T08:20:47;101205.59;;;14.78;49.95
42385;BME280;28042;43.986;22.860;2023-02-22T08:23:13;101210.84;;;14.86;49.91
42385;BME280;28042;43.986;22.860;2023-02-22T08:25:39;101205.13;;;14.94;49.77
42385;BME280;28042;43.986;22.860;2023-02-22T08:28:05;101204.47;;;15.12;49.36
42385;BME280;28042;43.986;22.860;2023-02-22T08:30:31;101208.22;;;15.24;48.89
42385;BME280;28042;43.986;22.860;2023-02-22T08:32:59;101204.78;;;15.36;48.84
42385;BME280;28042;43.986;22.860;2023-02-22T08:35:26;101203.91;;;15.48;48.33
42385;BME280;28042;43.986;22.860;2023-02-22T08:37:52;101198.81;;;15.45;48.18
42385;BME280;28042;43.986;22.860;2023-02-22T08:40:24;101203.09;;;15.41;48.33
42385;BME280;28042;43.986;22.860;2023-02-22T08:42:50;101198.38;;;15.55;47.99
42385;BME280;28042;43.986;22.860;2023-02-22T08:45:15;101197.53;;;15.54;47.71
42385;BME280;28042;43.986;22.860;2023-02-22T08:47:41;101194.13;;;15.59;47.85
42385;BME280;28042;43.986;22.860;2023-02-22T08:50:08;101197.25;;;15.76;47.68
42385;BME280;28042;43.986;22.860;2023-02-22T08:52:34;101187.88;;;15.90;47.35
42385;BME280;28042;43.986;22.860;2023-02-22T08:54:59;101196.06;;;15.97;46.93
42385;BME280;28042;43.986;22.860;2023-02-22T08:57:24;101204.06;;;16.05;46.90
42385;BME280;28042;43.986;22.860;2023-02-22T08:59:50;101190.25;;;16.11;46.66
42385;BME280;28042;43.986;22.860;2023-02-22T09:02:18;101195.97;;;16.10;46.78
42385;BME280;28042;43.986;22.860;2023-02-22T09:04:44;101189.53;;;16.23;46.05
42385;BME280;28042;43.986;22.860;2023-02-22T09:07:10;101195.09;;;16.16;46.53
42385;BME280;28042;43.986;22.860;2023-02-22T09:09:35;101195.31;;;16.15;45.86
42385;BME280;28042;43.986;22.860;2023-02-22T09:12:01;101189.63;;;16.09;46.16
42385;BME280;28042;43.986;22.860;2023-02-22T09:14:26;101183.69;;;16.13;46.20
42385;BME280;28042;43.986;22.860;2023-02-22T09:16:51;101197.78;;;16.23;46.18
42385;BME280;28042;43.986;22.860;2023-02-22T09:19:17;101179.31;;;16.30;46.38
42385;BME280;28042;43.986;22.860;2023-02-22T09:21:42;101181.75;;;16.45;46.06
42385;BME280;28042;43.986;22.860;2023-02-22T09:24:07;101188.75;;;16.65;45.37
42385;BME280;28042;43.986;22.860;2023-02-22T09:26:36;101189.94;;;16.76;44.86
42385;BME280;28042;43.986;22.860;2023-02-22T09:29:04;101181.47;;;16.78;45.03
42385;BME280;28042;43.986;22.860;2023-02-22T09:31:29;101183.31;;;17.02;44.88
42385;BME280;28042;43.986;22.860;2023-02-22T09:33:55;101186.72;;;17.04;44.00
42385;BME280;28042;43.986;22.860;2023-02-22T09:36:20;101181.78;;;16.88;44.28
42385;BME280;28042;43.986;22.860;2023-02-22T09:38:45;101185.47;;;17.00;44.41
42385;BME280;28042;43.986;22.860;2023-02-22T09:41:19;101173.53;;;17.06;44.24
42385;BME280;28042;43.986;22.860;2023-02-22T09:43:52;101177.91;;;17.14;44.33
42385;BME280;28042;43.986;22.860;2023-02-22T09:51:58;101181.63;;;17.19;44.07
42385;BME280;28042;43.986;22.860;2023-02-22T09:54:28;101176.22;;;17.13;43.78
42385;BME280;28042;43.986;22.860;2023-02-22T09:56:56;101178.75;;;17.14;43.93
42385;BME280;28042;43.986;22.860;2023-02-22T09:59:29;101157.91;;;17.00;43.99
42385;BME280;28042;43.986;22.860;2023-02-22T10:01:57;101179.97;;;17.00;43.90
42385;BME280;28042;43.986;22.860;2023-02-22T10:09:31;101160.81;;;17.23;43.50
42385;BME280;28042;43.986;22.860;2023-02-22T10:17:39;101143.50;;;17.35;43.58
42385;BME280;28042;43.986;22.860;2023-02-22T10:25:14;101144.13;;;17.18;43.58
42385;BME280;28042;43.986;22.860;2023-02-22T10:27:44;101145.81;;;17.19;43.21
42385;BME280;28042;43.986;22.860;2023-02-22T10:32:42;101131.25;;;17.31;43.42
42385;BME280;28042;43.986;22.860;2023-02-22T10:35:28;101123.13;;;17.36;43.11
42385;BME280;28042;43.986;22.860;2023-02-22T10:40:42;101138.59;;;17.37;43.20
42385;BME280;28042;43.986;22.860;2023-02-22T10:43:07;101126.91;;;17.23;43.26
42385;BME280;28042;43.986;22.860;2023-02-22T10:45:35;101102.44;;;17.27;43.13
42385;BME280;28042;43.986;22.860;2023-02-22T10:48:09;101106.84;;;17.46;43.21
42385;BME280;28042;43.986;22.860;2023-02-22T10:50:39;101093.84;;;17.35;42.76
42385;BME280;28042;43.986;22.860;2023-02-22T10:53:06;101091.53;;;17.50;42.65
42385;BME280;28042;43.986;22.860;2023-02-22T10:55:31;101084.50;;;17.36;42.78
42385;BME280;28042;43.986;22.860;2023-02-22T10:58:14;101093.81;;;17.53;42.58
42385;BME280;28042;43.986;22.860;2023-02-22T11:00:40;101087.34;;;17.59;42.18
42385;BME280;28042;43.986;22.860;2023-02-22T11:03:16;101103.34;;;17.69;42.07
42385;BME280;28042;43.986;22.860;2023-02-22T11:05:41;101080.75;;;17.60;42.10
42385;BME280;28042;43.986;22.860;2023-02-22T11:10:44;101061.41;;;17.78;41.72
42385;BME280;28042;43.986;22.860;2023-02-22T11:18:46;101075.47;;;17.89;40.98
42385;BME280;28042;43.986;22.860;2023-02-22T11:21:12;101048.84;;;18.06;40.63
42385;BME280;28042;43.986;22.860;2023-02-22T11:23:46;101058.09;;;18.12;40.49
42385;BME280;28042;43.986;22.860;2023-02-22T11:26:12;101057.13;;;18.06;40.29
42385;BME280;28042;43.986;22.860;2023-02-22T11:28:42;101054.25;;;18.13;40.05
42385;BME280;28042;43.986;22.860;2023-02-22T11:31:16;101048.75;;;18.24;40.35
42385;BME280;28042;43.986;22.860;2023-02-22T11:36:28;101039.38;;;18.25;40.03
42385;BME280;28042;43.986;22.860;2023-02-22T11:38:54;101030.72;;;18.45;39.77
42385;BME280;28042;43.986;22.860;2023-02-22T11:41:27;101025.06;;;18.40;39.77
42385;BME280;28042;43.986;22.860;2023-02-22T11:43:53;101022.66;;;18.32;39.45
42385;BME280;28042;43.986;22.860;2023-02-22T11:46:22;101019.69;;;18.33;39.63
42385;BME280;28042;43.986;22.860;2023-02-22T11:56:35;101012.31;;;18.62;38.65
42385;BME280;28042;43.986;22.860;2023-02-22T12:02:27;101005.94;;;18.62;38.83
42385;BME280;28042;43.986;22.860;2023-02-22T12:04:59;101014.03;;;18.40;38.96
42385;BME280;28042;43.986;22.860;2023-02-22T12:07:31;101009.94;;;18.31;39.06
42385;BME280;28042;43.986;22.860;2023-02-22T12:10:08;100999.16;;;18.29;39.07
42385;BME280;28042;43.986;22.860;2023-02-22T12:13:01;101000.22;;;18.28;38.98
42385;BME280;28042;43.986;22.860;2023-02-22T12:18:20;100976.44;;;18.51;38.66
42385;BME280;28042;43.986;22.860;2023-02-22T12:20:50;100989.63;;;18.49;38.95
42385;BME280;28042;43.986;22.860;2023-02-22T12:28:32;100977.03;;;18.41;38.78
42385;BME280;28042;43.986;22.860;2023-02-22T12:33:59;100977.09;;;18.58;38.50
42385;BME280;28042;43.986;22.860;2023-02-22T12:36:31;100971.94;;;18.73;38.29
42385;BME280;28042;43.986;22.860;2023-02-22T12:38:59;100975.09;;;18.65;38.19
42385;BME280;28042;43.986;22.860;2023-02-22T12:41:36;100973.38;;;18.64;38.05
42385;BME280;28042;43.986;22.860;2023-02-22T12:44:13;100967.25;;;18.62;38.18
42385;BME280;28042;43.986;22.860;2023-02-22T12:46:42;100949.84;;;18.50;37.87
42385;BME280;28042;43.986;22.860;2023-02-22T12:49:19;100963.22;;;18.53;38.15
42385;BME280;28042;43.986;22.860;2023-02-22T12:56:58;100955.47;;;18.78;37.74
42385;BME280;28042;43.986;22.860;2023-02-22T12:59:31;100956.56;;;18.77;37.92
42385;BME280;28042;43.986;22.860;2023-02-22T13:01:59;100973.22;;;18.82;37.43
42385;BME280;28042;43.986;22.860;2023-02-22T13:04:25;100963.00;;;18.83;37.52
42385;BME280;28042;43.986;22.860;2023-02-22T13:19:43;100960.53;;;18.58;37.06
42385;BME280;28042;43.986;22.860;2023-02-22T13:27:20;100958.38;;;18.60;37.06
42385;BME280;28042;43.986;22.860;2023-02-22T13:29:47;100963.66;;;18.73;37.25
42385;BME280;28042;43.986;22.860;2023-02-22T13:47:49;100947.22;;;18.55;37.11
42385;BME280;28042;43.986;22.860;2023-02-22T13:52:47;100940.47;;;18.62;37.42
42385;BME280;28042;43.986;22.860;2023-02-22T13:55:14;100938.13;;;18.43;36.92
42385;BME280;28042;43.986;22.860;2023-02-22T13:57:45;100955.41;;;18.38;37.17
42385;BME280;28042;43.986;22.860;2023-02-22T14:02:56;100938.34;;;18.41;37.41
42385;BME280;28042;43.986;22.860;2023-02-22T14:13:13;100928.59;;;18.50;37.57
42385;BME280;28042;43.986;22.860;2023-02-22T14:18:28;100947.97;;;18.39;39.54
42385;BME280;28042;43.986;22.860;2023-02-22T14:28:57;100940.59;;;17.92;40.97
42385;BME280;28042;43.986;22.860;2023-02-22T14:31:34;100944.28;;;17.98;40.46
42385;BME280;28042;43.986;22.860;2023-02-22T14:34:18;100937.47;;;18.00;40.01
42385;BME280;28042;43.986;22.860;2023-02-22T14:36:50;100947.69;;;18.00;39.76
42385;BME280;28042;43.986;22.860;2023-02-22T14:41:52;100949.34;;;18.01;39.96
42385;BME280;28042;43.986;22.860;2023-02-22T14:44:20;100946.84;;;17.99;40.18
42385;BME280;28042;43.986;22.860;2023-02-22T14:46:47;100946.97;;;17.93;40.25
42385;BME280;28042;43.986;22.860;2023-02-22T14:49:16;100952.44;;;17.69;40.26
42385;BME280;28042;43.986;22.860;2023-02-22T14:51:47;100947.84;;;17.63;40.68
42385;BME280;28042;43.986;22.860;2023-02-22T14:54:34;100952.53;;;17.51;40.56
42385;BME280;28042;43.986;22.860;2023-02-22T14:57:12;100949.03;;;17.44;40.54
42385;BME280;28042;43.986;22.860;2023-02-22T15:02:21;100947.28;;;17.19;41.46
42385;BME280;28042;43.986;22.860;2023-02-22T15:04:53;100949.94;;;17.14;41.92
42385;BME280;28042;43.986;22.860;2023-02-22T15:07:26;100941.50;;;17.09;42.06
42385;BME280;28042;43.986;22.860;2023-02-22T15:10:03;100946.66;;;17.06;42.56
42385;BME280;28042;43.986;22.860;2023-02-22T15:12:30;100944.59;;;17.01;42.51
42385;BME280;28042;43.986;22.860;2023-02-22T15:17:39;100956.28;;;16.85;42.17
42385;BME280;28042;43.986;22.860;2023-02-22T15:20:06;100958.16;;;16.73;42.29
42385;BME280;28042;43.986;22.860;2023-02-22T15:22:34;100962.03;;;16.65;42.37
42385;BME280;28042;43.986;22.860;2023-02-22T15:25:04;100957.91;;;16.56;42.50
42385;BME280;28042;43.986;22.860;2023-02-22T15:27:31;100957.13;;;16.49;42.78
42385;BME280;28042;43.986;22.860;2023-02-22T15:30:02;100953.25;;;16.38;43.20
42385;BME280;28042;43.986;22.860;2023-02-22T15:32:30;100956.47;;;16.35;43.34
42385;BME280;28042;43.986;22.860;2023-02-22T15:37:41;100955.22;;;16.13;44.30
42385;BME280;28042;43.986;22.860;2023-02-22T15:40:18;100956.59;;;16.03;44.72